createdAt,value
2022-09-26T00:01:36.799Z,77.40
2022-09-26T00:04:08.222Z,77.42
2022-09-26T00:06:36.497Z,77.37
2022-09-26T00:09:04.626Z,77.36
2022-09-26T00:11:33.616Z,77.09
2022-09-26T00:14:05.604Z,77.00
2022-09-26T00:16:33.672Z,77.09
2022-09-26T00:19:01.812Z,76.89
2022-09-26T00:21:30.500Z,76.94
2022-09-26T00:24:00.451Z,76.80
2022-09-26T00:26:31.107Z,76.83
2022-09-26T00:29:01.225Z,76.73
2022-09-26T00:31:33.335Z,76.75
2022-09-26T00:34:01.868Z,76.70
2022-09-26T00:36:38.030Z,76.69
2022-09-26T00:39:08.505Z,76.69
2022-09-26T00:41:37.548Z,76.64
2022-09-26T00:44:37.570Z,76.58
2022-09-26T00:47:13.358Z,76.71
2022-09-26T00:49:44.782Z,76.84
2022-09-26T00:52:20.236Z,76.61
2022-09-26T00:54:52.648Z,76.57
2022-09-26T00:57:45.449Z,76.43
2022-09-26T01:00:15.248Z,76.42
2022-09-26T01:02:45.469Z,76.43
2022-09-26T01:05:16.943Z,76.44
2022-09-26T01:07:45.458Z,76.53
2022-09-26T01:10:13.818Z,76.45
2022-09-26T01:12:43.100Z,76.64
2022-09-26T01:15:11.637Z,76.50
2022-09-26T01:17:42.954Z,76.61
2022-09-26T01:20:34.720Z,76.48
2022-09-26T01:23:24.709Z,76.50
2022-09-26T01:26:20.360Z,76.43
2022-09-26T01:29:06.468Z,76.55
2022-09-26T01:32:14.767Z,76.59
2022-09-26T01:35:27.149Z,76.39
2022-09-26T01:38:21.940Z,76.43
2022-09-26T01:41:08.288Z,76.38
2022-09-26T01:43:55.145Z,76.40
2022-09-26T01:46:38.666Z,76.31
2022-09-26T01:49:16.512Z,76.35
2022-09-26T01:52:12.268Z,76.50
2022-09-26T01:54:54.623Z,76.65
2022-09-26T01:57:44.471Z,76.55
2022-09-26T02:00:12.812Z,76.59
2022-09-26T02:02:47.531Z,76.54
2022-09-26T02:05:33.644Z,76.50
2022-09-26T02:08:16.042Z,76.63
2022-09-26T02:10:50.588Z,76.39
2022-09-26T02:13:30.039Z,76.37
2022-09-26T02:16:09.338Z,76.51
2022-09-26T02:18:54.563Z,76.39
2022-09-26T02:21:24.535Z,76.35
2022-09-26T02:23:54.804Z,76.25
2022-09-26T02:26:23.802Z,76.47
2022-09-26T02:28:52.653Z,76.49
2022-09-26T02:31:24.975Z,76.39
2022-09-26T02:33:54.391Z,76.44
2022-09-26T02:36:24.144Z,76.66
2022-09-26T02:38:51.971Z,76.46
2022-09-26T02:41:59.419Z,76.40
2022-09-26T02:44:55.804Z,76.34
2022-09-26T02:47:50.804Z,76.43
2022-09-26T02:50:35.128Z,76.34
2022-09-26T02:53:32.196Z,76.31
2022-09-26T02:56:28.129Z,76.23
2022-09-26T02:59:13.297Z,76.40
2022-09-26T03:02:05.754Z,76.61
2022-09-26T03:04:48.051Z,76.51
2022-09-26T03:07:24.496Z,76.65
2022-09-26T03:09:55.010Z,76.47
2022-09-26T03:12:28.378Z,76.36
2022-09-26T03:15:00.731Z,76.26
2022-09-26T03:17:29.509Z,76.30
2022-09-26T03:20:05.286Z,76.26
2022-09-26T03:22:34.228Z,76.39
2022-09-26T03:25:03.532Z,76.52
2022-09-26T03:27:34.765Z,76.37
2022-09-26T03:30:03.136Z,76.22
2022-09-26T03:32:32.399Z,76.33
2022-09-26T03:35:00.075Z,76.40
2022-09-26T03:37:28.471Z,76.28
2022-09-26T03:39:56.230Z,76.21
2022-09-26T03:42:34.921Z,76.15
2022-09-26T03:45:05.553Z,76.01
2022-09-26T03:47:59.522Z,75.93
2022-09-26T03:50:27.307Z,76.08
2022-09-26T03:52:55.129Z,76.25
2022-09-26T03:55:23.419Z,76.36
2022-09-26T03:57:51.955Z,76.45
2022-09-26T04:00:26.613Z,76.45
2022-09-26T04:02:54.554Z,76.48
2022-09-26T04:05:35.161Z,76.66
2022-09-26T04:08:04.471Z,77.11
2022-09-26T04:10:33.351Z,77.22
2022-09-26T04:13:01.418Z,77.15
2022-09-26T04:15:30.116Z,77.08
2022-09-26T04:18:06.925Z,76.92
2022-09-26T04:20:34.960Z,77.24
2022-09-26T04:23:03.412Z,77.45
2022-09-26T04:25:32.181Z,77.65
2022-09-26T04:28:00.121Z,77.63
2022-09-26T04:30:29.801Z,77.51
2022-09-26T04:33:00.820Z,77.73
2022-09-26T04:35:53.721Z,77.88
2022-09-26T04:38:21.821Z,78.01
2022-09-26T04:40:49.993Z,77.87
2022-09-26T04:43:17.933Z,78.01
2022-09-26T04:45:45.884Z,78.06
2022-09-26T04:48:13.907Z,78.56
2022-09-26T04:50:44.464Z,78.93
2022-09-26T04:53:13.459Z,79.32
2022-09-26T04:55:49.707Z,79.49
2022-09-26T04:58:17.729Z,79.54
2022-09-26T05:00:48.033Z,79.59
2022-09-26T05:03:18.842Z,79.60
2022-09-26T05:05:50.562Z,79.59
2022-09-26T05:08:18.434Z,79.61
2022-09-26T05:10:52.906Z,79.61
2022-09-26T05:13:22.205Z,79.71
2022-09-26T05:15:54.335Z,79.82
2022-09-26T05:18:25.164Z,79.77
2022-09-26T05:20:54.225Z,80.01
2022-09-26T05:23:44.947Z,80.07
2022-09-26T05:26:24.179Z,80.34
2022-09-26T05:28:55.707Z,80.32
2022-09-26T05:31:29.144Z,80.42
2022-09-26T05:33:57.300Z,80.59
2022-09-26T05:36:26.343Z,80.97
2022-09-26T05:38:54.749Z,81.18
2022-09-26T05:41:23.180Z,81.47
2022-09-26T05:43:51.629Z,81.60
2022-09-26T05:46:19.617Z,81.77
2022-09-26T05:48:49.386Z,81.89
2022-09-26T05:51:21.205Z,82.01
2022-09-26T05:53:49.672Z,82.01
2022-09-26T05:56:20.333Z,82.13
2022-09-26T05:59:07.066Z,82.60
2022-09-26T06:01:53.684Z,82.82
2022-09-26T06:04:47.308Z,82.93
2022-09-26T06:07:54.255Z,83.24
2022-09-26T06:10:39.137Z,83.45
2022-09-26T06:13:07.998Z,83.36
2022-09-26T06:15:43.762Z,83.58
2022-09-26T06:18:11.572Z,83.52
2022-09-26T06:20:39.470Z,83.77
2022-09-26T06:23:07.548Z,83.68
2022-09-26T06:25:38.763Z,83.78
2022-09-26T06:28:07.252Z,83.87
2022-09-26T06:30:37.396Z,83.87
2022-09-26T06:33:22.187Z,83.90
2022-09-26T06:36:16.908Z,83.85
2022-09-26T06:38:45.927Z,83.90
2022-09-26T06:41:17.693Z,83.92
2022-09-26T06:43:46.581Z,83.68
2022-09-26T06:46:33.121Z,83.53
2022-09-26T06:49:15.282Z,83.63
2022-09-26T06:51:57.154Z,83.44
2022-09-26T06:54:25.084Z,83.27
2022-09-26T06:56:53.217Z,83.18
2022-09-26T06:59:23.344Z,83.30
2022-09-26T07:02:12.385Z,83.47
2022-09-26T07:04:59.807Z,83.56
2022-09-26T07:07:43.466Z,83.39
2022-09-26T07:10:19.470Z,83.38
2022-09-26T07:13:05.295Z,83.09
2022-09-26T07:15:35.427Z,82.78
2022-09-26T07:18:12.187Z,82.22
2022-09-26T07:20:56.942Z,82.12
2022-09-26T07:23:46.559Z,82.09
2022-09-26T07:26:14.778Z,81.99
2022-09-26T07:28:42.578Z,81.52
2022-09-26T07:31:11.152Z,81.42
2022-09-26T07:34:10.201Z,81.01
2022-09-26T07:36:40.877Z,81.01
2022-09-26T07:39:10.006Z,80.34
2022-09-26T07:41:37.883Z,80.40
2022-09-26T07:47:12.388Z,80.28
2022-09-26T07:49:59.126Z,79.59
2022-09-26T07:52:37.588Z,79.13
2022-09-26T07:55:24.870Z,78.99
2022-09-26T07:58:07.255Z,78.50
2022-09-26T08:00:55.419Z,78.15
2022-09-26T08:03:37.612Z,78.19
2022-09-26T08:06:17.955Z,78.07
2022-09-26T08:08:47.697Z,77.80
2022-09-26T08:11:44.752Z,77.17
2022-09-26T08:14:22.254Z,76.36
2022-09-26T08:17:17.516Z,76.25
2022-09-26T08:19:45.513Z,76.14
2022-09-26T08:22:14.643Z,76.07
2022-09-26T08:24:45.309Z,75.64
2022-09-26T08:27:53.248Z,75.37
2022-09-26T08:30:23.802Z,74.94
2022-09-26T08:32:59.103Z,75.21
2022-09-26T08:35:27.062Z,75.10
2022-09-26T08:37:54.823Z,74.80
2022-09-26T08:40:50.486Z,74.76
2022-09-26T08:43:57.826Z,74.59
2022-09-26T08:47:01.773Z,74.51
2022-09-26T08:49:51.038Z,74.38
2022-09-26T08:52:46.665Z,74.48
2022-09-26T08:55:20.265Z,74.38
2022-09-26T08:58:00.692Z,74.49
2022-09-26T09:00:32.481Z,74.50
2022-09-26T09:03:31.679Z,74.66
2022-09-26T09:06:07.646Z,74.53
2022-09-26T09:08:40.139Z,74.86
2022-09-26T09:11:51.279Z,74.82
2022-09-26T09:14:37.971Z,74.91
2022-09-26T09:17:39.239Z,74.92
2022-09-26T09:21:08.710Z,74.99
2022-09-26T09:24:16.855Z,74.83
2022-09-26T09:30:18.080Z,74.54
2022-09-26T09:33:19.521Z,74.36
2022-09-26T09:36:16.761Z,73.10
2022-09-26T09:39:07.340Z,71.98
2022-09-26T09:41:52.611Z,71.78
2022-09-26T09:45:04.114Z,71.76
2022-09-26T09:47:39.363Z,70.95
2022-09-26T09:50:46.737Z,70.65
2022-09-26T09:53:25.351Z,70.16
2022-09-26T09:55:53.267Z,69.63
2022-09-26T09:58:52.058Z,68.42
2022-09-26T10:01:35.729Z,68.87
2022-09-26T10:04:27.808Z,68.98
2022-09-26T10:06:56.323Z,67.93
2022-09-26T10:09:40.679Z,67.11
2022-09-26T10:12:33.206Z,64.94
2022-09-26T10:15:27.352Z,63.67
2022-09-26T10:18:24.836Z,63.89
2022-09-26T10:21:19.714Z,64.36
2022-09-26T10:23:50.574Z,63.52
2022-09-26T10:26:37.312Z,62.83
2022-09-26T10:29:35.372Z,63.34
2022-09-26T10:32:03.808Z,62.06
2022-09-26T10:34:35.326Z,61.86
2022-09-26T10:37:22.460Z,63.21
2022-09-26T10:40:12.511Z,63.00
2022-09-26T10:42:41.400Z,61.90
2022-09-26T10:45:16.034Z,61.58
2022-09-26T10:48:12.460Z,60.58
2022-09-26T10:51:00.644Z,60.75
2022-09-26T10:53:47.827Z,60.79
2022-09-26T10:56:20.742Z,61.62
2022-09-26T10:58:52.279Z,61.28
2022-09-26T11:01:26.582Z,61.86
2022-09-26T11:04:00.432Z,61.85
2022-09-26T11:06:33.300Z,61.74
2022-09-26T11:09:27.690Z,61.31
2022-09-26T11:12:26.299Z,60.19
2022-09-26T11:14:59.292Z,57.78
2022-09-26T11:17:45.232Z,56.85
2022-09-26T11:20:17.636Z,55.76
2022-09-26T11:22:53.328Z,56.02
2022-09-26T11:25:29.455Z,56.87
2022-09-26T11:28:08.938Z,56.61
2022-09-26T11:31:10.214Z,56.68
2022-09-26T11:33:45.919Z,56.60
2022-09-26T11:36:56.216Z,56.89
2022-09-26T11:39:54.205Z,56.89
2022-09-26T11:42:35.407Z,57.57
2022-09-26T11:45:15.522Z,57.09
2022-09-26T11:48:17.228Z,56.87
2022-09-26T11:51:42.116Z,56.61
2022-09-26T11:54:32.683Z,55.62
2022-09-26T11:57:12.558Z,56.00
2022-09-26T12:00:13.314Z,55.82
2022-09-26T12:02:48.906Z,55.83
2022-09-26T12:05:27.399Z,55.98
2022-09-26T12:08:14.801Z,56.59
2022-09-26T12:10:57.039Z,56.75
2022-09-26T12:13:35.304Z,57.22
2022-09-26T12:16:24.329Z,57.58
2022-09-26T12:19:16.710Z,57.68
2022-09-26T12:22:20.391Z,56.46
2022-09-26T12:25:16.552Z,55.98
2022-09-26T12:28:13.360Z,55.89
2022-09-26T12:30:53.265Z,55.40
2022-09-26T12:33:33.340Z,56.49
2022-09-26T12:36:11.754Z,56.57
2022-09-26T12:38:40.153Z,56.58
2022-09-26T12:41:25.337Z,56.83
2022-09-26T12:44:13.016Z,57.20
2022-09-26T12:46:53.686Z,57.23
2022-09-26T12:49:33.735Z,57.32
2022-09-26T12:52:15.657Z,57.75
2022-09-26T12:55:15.773Z,57.33
2022-09-26T12:58:16.885Z,57.38
2022-09-26T13:00:54.490Z,56.74
2022-09-26T13:03:56.324Z,56.15
2022-09-26T13:06:38.961Z,55.97
2022-09-26T13:09:16.067Z,56.33
2022-09-26T13:11:58.067Z,56.19
2022-09-26T13:14:55.329Z,55.93
2022-09-26T13:17:46.415Z,56.19
2022-09-26T13:20:41.244Z,56.04
2022-09-26T13:23:17.663Z,56.04
2022-09-26T13:25:56.602Z,56.35
2022-09-26T13:28:38.441Z,55.94
2022-09-26T13:31:18.924Z,56.05
2022-09-26T13:34:01.565Z,56.12
2022-09-26T13:36:32.445Z,56.29
2022-09-26T13:39:08.479Z,56.31
2022-09-26T13:42:01.466Z,56.43
2022-09-26T13:44:44.991Z,56.49
2022-09-26T13:47:27.177Z,56.36
2022-09-26T13:49:58.857Z,56.41
2022-09-26T13:52:57.837Z,56.95
2022-09-26T13:55:26.497Z,57.09
2022-09-26T13:58:03.219Z,57.82
2022-09-26T14:00:31.730Z,57.51
2022-09-26T14:03:18.255Z,57.65
2022-09-26T14:05:52.239Z,57.64
2022-09-26T14:08:44.973Z,58.11
2022-09-26T14:11:25.629Z,58.52
2022-09-26T14:14:19.003Z,58.87
2022-09-26T14:16:48.797Z,59.57
2022-09-26T14:19:38.417Z,59.68
2022-09-26T14:22:26.291Z,59.93
2022-09-26T14:24:57.261Z,60.34
2022-09-26T14:27:36.474Z,61.22
2022-09-26T14:30:30.601Z,61.52
2022-09-26T14:33:02.727Z,62.07
2022-09-26T14:35:33.595Z,63.31
2022-09-26T14:38:17.503Z,64.15
2022-09-26T14:40:58.105Z,65.26
2022-09-26T14:43:29.968Z,66.28
2022-09-26T14:46:03.964Z,66.53
2022-09-26T14:48:40.123Z,64.83
2022-09-26T14:51:18.780Z,64.43
2022-09-26T14:54:12.312Z,65.33
2022-09-26T14:56:46.576Z,66.04
2022-09-26T14:59:36.364Z,66.84
2022-09-26T15:02:28.868Z,67.23
2022-09-26T15:05:08.914Z,67.91
2022-09-26T15:07:49.673Z,68.64
2022-09-26T15:10:22.557Z,69.11
2022-09-26T15:13:08.700Z,69.53
2022-09-26T15:15:50.832Z,70.22
2022-09-26T15:18:28.095Z,70.76
2022-09-26T15:21:04.884Z,71.31
2022-09-26T15:23:34.948Z,71.48
2022-09-26T15:26:03.149Z,71.46
2022-09-26T15:28:38.017Z,71.93
2022-09-26T15:31:21.547Z,72.28
2022-09-26T15:33:57.362Z,72.65
2022-09-26T15:36:28.982Z,73.31
2022-09-26T15:38:58.466Z,73.77
2022-09-26T15:41:45.059Z,73.86
2022-09-26T15:44:22.967Z,74.03
2022-09-26T15:46:51.358Z,74.43
2022-09-26T15:49:22.436Z,74.59
2022-09-26T15:51:54.511Z,74.58
2022-09-26T15:54:30.876Z,74.81
2022-09-26T15:57:07.183Z,75.03
2022-09-26T15:59:41.368Z,75.07
2022-09-26T16:02:28.527Z,75.29
2022-09-26T16:04:56.980Z,75.71
2022-09-26T16:07:28.278Z,75.93
2022-09-26T16:09:57.530Z,75.94
2022-09-26T16:12:31.834Z,76.14
2022-09-26T16:15:04.318Z,76.11
2022-09-26T16:17:49.568Z,76.27
2022-09-26T16:20:17.236Z,76.32
2022-09-26T16:22:51.685Z,76.31
2022-09-26T16:25:23.013Z,76.46
2022-09-26T16:27:58.364Z,76.49
2022-09-26T16:30:30.095Z,76.57
2022-09-26T16:33:07.601Z,76.64
2022-09-26T16:35:43.482Z,76.72
2022-09-26T16:38:14.368Z,76.86
2022-09-26T16:40:53.110Z,76.92
2022-09-26T16:43:31.832Z,77.13
2022-09-26T16:46:18.384Z,77.42
2022-09-26T16:48:51.333Z,77.28
2022-09-26T16:51:25.476Z,77.02
2022-09-26T16:54:11.961Z,77.05
2022-09-26T16:56:41.741Z,76.74
2022-09-26T16:59:28.917Z,76.94
2022-09-26T17:02:02.492Z,77.05
2022-09-26T17:04:32.919Z,76.98
2022-09-26T17:07:08.879Z,77.00
2022-09-26T17:09:38.348Z,77.08
2022-09-26T17:12:15.463Z,77.18
2022-09-26T17:14:46.024Z,77.15
2022-09-26T17:17:22.020Z,77.21
2022-09-26T17:19:56.742Z,77.17
2022-09-26T17:22:28.349Z,77.36
2022-09-26T17:24:56.632Z,77.33
2022-09-26T17:27:32.774Z,77.35
2022-09-26T17:30:02.545Z,77.17
2022-09-26T17:32:33.638Z,77.13
2022-09-26T17:35:04.941Z,77.14
2022-09-26T17:37:33.117Z,76.92
2022-09-26T17:40:01.239Z,76.28
2022-09-26T17:42:30.386Z,76.22
2022-09-26T17:44:58.304Z,75.71
2022-09-26T17:47:26.602Z,75.82
2022-09-26T17:49:56.276Z,75.95
2022-09-26T17:52:29.250Z,75.78
2022-09-26T17:55:00.032Z,75.63
2022-09-26T17:57:30.239Z,75.63
2022-09-26T17:59:58.341Z,75.86
2022-09-26T18:02:31.106Z,75.85
2022-09-26T18:05:03.592Z,76.02
2022-09-26T18:07:36.783Z,75.96
2022-09-26T18:10:07.791Z,75.90
2022-09-26T18:12:36.242Z,75.78
2022-09-26T18:15:04.830Z,75.97
2022-09-26T18:17:32.806Z,76.16
2022-09-26T18:20:00.824Z,76.36
2022-09-26T18:22:32.878Z,76.43
2022-09-26T18:25:09.240Z,76.50
2022-09-26T18:27:40.717Z,76.86
2022-09-26T18:30:14.132Z,76.76
2022-09-26T18:32:45.978Z,77.13
2022-09-26T18:35:19.924Z,77.45
2022-09-26T18:37:47.775Z,77.67
2022-09-26T18:40:16.739Z,77.97
2022-09-26T18:42:45.420Z,78.06
2022-09-26T18:45:17.064Z,78.39
2022-09-26T18:47:45.379Z,78.40
2022-09-26T18:50:29.913Z,78.67
2022-09-26T18:52:57.823Z,78.86
2022-09-26T18:55:45.559Z,78.88
2022-09-26T18:58:24.012Z,78.86
2022-09-26T19:00:56.754Z,78.91
2022-09-26T19:03:28.371Z,78.82
2022-09-26T19:06:03.624Z,79.01
2022-09-26T19:08:38.216Z,78.91
2022-09-26T19:11:13.051Z,79.00
2022-09-26T19:13:46.082Z,79.04
2022-09-26T19:16:14.106Z,79.11
2022-09-26T19:18:42.817Z,79.08
2022-09-26T19:21:35.223Z,79.12
2022-09-26T19:24:20.328Z,79.05
2022-09-26T19:27:03.638Z,78.96
2022-09-26T19:29:40.001Z,78.82
2022-09-26T19:32:23.846Z,78.66
2022-09-26T19:34:55.584Z,78.65
2022-09-26T19:37:23.690Z,78.63
2022-09-26T19:39:51.643Z,78.66
2022-09-26T19:42:19.757Z,78.77
2022-09-26T19:44:49.256Z,78.66
2022-09-26T19:47:23.378Z,78.86
2022-09-26T19:49:52.994Z,78.95
2022-09-26T19:52:22.555Z,79.14
2022-09-26T19:54:50.550Z,79.39
2022-09-26T19:57:20.935Z,79.45
2022-09-26T19:59:50.292Z,79.59
2022-09-26T20:02:22.072Z,79.37
2022-09-26T20:04:51.221Z,79.20
2022-09-26T20:07:19.938Z,79.16
2022-09-26T20:09:48.396Z,79.07
2022-09-26T20:12:16.245Z,79.01
2022-09-26T20:14:44.025Z,79.07
2022-09-26T20:17:14.649Z,78.93
2022-09-26T20:19:45.987Z,79.20
2022-09-26T20:22:16.545Z,78.95
2022-09-26T20:24:47.546Z,78.85
2022-09-26T20:27:19.811Z,78.79
2022-09-26T20:30:07.902Z,78.83
2022-09-26T20:32:37.187Z,78.76
2022-09-26T20:35:06.399Z,78.73
2022-09-26T20:37:39.064Z,78.80
2022-09-26T20:40:14.821Z,78.89
2022-09-26T20:42:45.515Z,78.88
2022-09-26T20:45:19.559Z,78.93
2022-09-26T20:47:47.767Z,79.01
2022-09-26T20:50:19.272Z,78.91
2022-09-26T20:52:47.200Z,79.00
2022-09-26T20:55:19.461Z,79.04
2022-09-26T20:57:48.368Z,79.30
2022-09-26T21:00:19.457Z,79.21
2022-09-26T21:02:51.768Z,79.25
2022-09-26T21:05:25.415Z,79.39
2022-09-26T21:07:55.830Z,79.57
2022-09-26T21:10:25.769Z,79.68
2022-09-26T21:12:54.130Z,79.76
2022-09-26T21:15:23.424Z,79.81
2022-09-26T21:17:53.308Z,79.93
2022-09-26T21:20:25.907Z,80.17
2022-09-26T21:23:10.762Z,80.29
2022-09-26T21:25:38.651Z,80.47
2022-09-26T21:28:11.344Z,80.45
2022-09-26T21:30:39.433Z,80.59
2022-09-26T21:33:12.704Z,80.55
2022-09-26T21:35:41.750Z,80.75
2022-09-26T21:38:09.733Z,80.86
2022-09-26T21:40:40.327Z,80.78
2022-09-26T21:43:14.914Z,80.92
2022-09-26T21:45:45.587Z,81.13
2022-09-26T21:48:15.068Z,81.14
2022-09-26T21:50:58.294Z,81.20
2022-09-26T21:53:33.077Z,81.27
2022-09-26T21:56:07.350Z,81.38
2022-09-26T21:58:39.003Z,81.58
2022-09-26T22:01:07.595Z,81.62
2022-09-26T22:03:35.842Z,81.65
2022-09-26T22:06:07.569Z,81.64
2022-09-26T22:08:37.494Z,81.67
2022-09-26T22:11:06.342Z,81.78
2022-09-26T22:13:37.996Z,81.73
2022-09-26T22:16:11.509Z,81.86
2022-09-26T22:18:40.514Z,81.85
2022-09-26T22:21:10.861Z,81.98
2022-09-26T22:23:39.162Z,82.20
2022-09-26T22:26:07.623Z,82.12
2022-09-26T22:28:36.145Z,82.08
2022-09-26T22:31:05.284Z,82.27
2022-09-26T22:33:34.341Z,82.19
2022-09-26T22:36:02.705Z,82.29
2022-09-26T22:38:32.763Z,82.37
2022-09-26T22:41:03.314Z,82.44
2022-09-26T22:43:33.100Z,82.58
2022-09-26T22:46:07.352Z,82.51
2022-09-26T22:48:37.748Z,82.58
2022-09-26T22:51:06.045Z,82.58
2022-09-26T22:53:37.040Z,82.78
2022-09-26T22:56:08.285Z,82.97
2022-09-26T22:58:54.729Z,82.94
2022-09-26T23:01:25.695Z,83.09
2022-09-26T23:03:54.238Z,83.25
2022-09-26T23:06:23.155Z,83.38
2022-09-26T23:08:51.778Z,83.42
2022-09-26T23:11:20.340Z,83.64
2022-09-26T23:13:52.035Z,83.74
2022-09-26T23:16:23.513Z,83.89
2022-09-26T23:18:52.313Z,84.05
2022-09-26T23:21:22.615Z,83.85
2022-09-26T23:23:53.212Z,83.71
2022-09-26T23:26:23.357Z,83.73
2022-09-26T23:28:52.652Z,83.57
2022-09-26T23:31:21.061Z,83.42
2022-09-26T23:33:49.379Z,83.35
2022-09-26T23:36:18.088Z,83.18
2022-09-26T23:38:46.706Z,83.16
2022-09-26T23:41:14.530Z,83.10
2022-09-26T23:43:42.732Z,82.96
2022-09-26T23:46:11.386Z,83.04
2022-09-26T23:48:39.641Z,82.91
2022-09-26T23:51:08.327Z,82.97
2022-09-26T23:53:36.357Z,82.94
2022-09-26T23:56:04.964Z,82.82
2022-09-26T23:58:33.412Z,82.78
